Airfield :
LOGIN :

Register | Disclaimer

   EN    FR    IT 

 










Legend :    VFR   Marginal VFR   IFR   Intensive IFR   Very Intensive IFR
Visi :
Ceiling :
>= 8 km
>= 3000ft
5 to 8 km
1000 to 3000 ft
1500m to 5 km
500 to 1000 ft
800 to 1500m
200 to 500 ft
< 800m
< 200 ft
Symbols :   Thunderstorms  Fog  Heavy snow  Heavy precipitations  Wind > 20 kt
SIGMETs :     Misc.  Thunderstorms  Icing  Turbulence  Mountain Waves  Volcanic Ashes






- Airport Elevation : 188 ft
- IATA code : ORB


ESOE - Örebro

CURRENT METAR :
  • 111920Z 13004KT 9000 BKN006 02/01 Q1007

EXPIRED METARs :
  • 111850Z 18004KT 9999 BKN007 BKN021 02/01 Q1007
  • 111820Z 14005KT 9999 BKN005 OVC016 03/02 Q1007
  • 111750Z VRB02KT 7000 OVC005 02/01 Q1007
  • 111720Z 13004KT 7000 BR OVC005 02/01 Q1007
  • 111650Z 13003KT 9999 OVC005 02/01 Q1007

TAF TAF ESOE
Valid from the 11 at 18:00 until the 11 at 23:00 UTC


111730Z 1118/1123 15005KT 9999 BKN004
BECMG 1118/1120 BKN025



MET'MAP, your aeronautical weather chart ! - Copyright ORBIFLY December 2007 - Disclaimer

ORBIFLY MET'MAP TEAM :

Programming & Development : Alexandra Zaïnal
Concept & Development : Baudouin d'Aumeries
Co-Development & Prog : Marc-Olivier Méhu
Technical & hardware support : Manuel Goepfert

Contact : metmap@orbifly.com




SOURCES & CREDITS :

   NOAA